createdAt,value
2023-05-10T00:00:19.229Z,25.72
2023-05-10T00:01:19.002Z,25.75
2023-05-10T00:02:19.095Z,25.72
2023-05-10T00:03:19.117Z,25.72
2023-05-10T00:04:19.176Z,25.75
2023-05-10T00:05:19.044Z,25.72
2023-05-10T00:06:19.054Z,25.72
2023-05-10T00:07:19.075Z,25.72
2023-05-10T00:08:19.092Z,25.72
2023-05-10T00:09:19.098Z,25.71
2023-05-10T00:10:19.281Z,25.71
2023-05-10T00:11:20.899Z,25.72
2023-05-10T00:12:19.127Z,25.75
2023-05-10T00:13:19.193Z,25.72
2023-05-10T00:14:19.085Z,25.69
2023-05-10T00:15:19.077Z,25.71
2023-05-10T00:16:19.121Z,25.72
2023-05-10T00:17:19.042Z,25.68
2023-05-10T00:18:19.036Z,25.68
2023-05-10T00:19:19.051Z,25.69
2023-05-10T00:20:19.343Z,25.71
2023-05-10T00:21:19.007Z,25.69
2023-05-10T00:22:19.006Z,25.71
2023-05-10T00:23:19.013Z,25.68
2023-05-10T00:24:18.992Z,25.71
2023-05-10T00:25:19.002Z,25.66
2023-05-10T00:26:19.032Z,25.69
2023-05-10T00:27:18.981Z,25.66
2023-05-10T00:28:19.038Z,25.68
2023-05-10T00:29:19.005Z,25.68
2023-05-10T00:30:19.212Z,25.66
2023-05-10T00:31:18.972Z,25.65
2023-05-10T00:32:19.122Z,25.69
2023-05-10T00:33:18.969Z,25.68
2023-05-10T00:34:18.970Z,25.66
2023-05-10T00:35:18.969Z,25.68
2023-05-10T00:36:18.968Z,25.66
2023-05-10T00:37:18.949Z,25.68
2023-05-10T00:38:18.981Z,25.65
2023-05-10T00:39:18.945Z,25.68
2023-05-10T00:40:19.191Z,25.68
2023-05-10T00:41:18.922Z,25.68
2023-05-10T00:42:18.892Z,25.66
2023-05-10T00:43:18.903Z,25.68
2023-05-10T00:44:18.890Z,25.68
2023-05-10T00:45:18.897Z,25.68
2023-05-10T00:46:18.897Z,25.65
2023-05-10T00:47:18.864Z,25.65
2023-05-10T00:48:18.913Z,25.66
2023-05-10T00:49:18.853Z,25.65
2023-05-10T00:50:19.046Z,25.66
2023-05-10T00:51:18.811Z,25.65
2023-05-10T00:52:18.799Z,25.65
2023-05-10T00:53:18.841Z,25.68
2023-05-10T00:54:18.788Z,25.66
2023-05-10T00:55:18.783Z,25.66
2023-05-10T00:56:18.774Z,25.65
2023-05-10T00:57:18.762Z,25.64
2023-05-10T00:58:18.794Z,25.65
2023-05-10T00:59:18.769Z,25.62
2023-05-10T01:00:18.778Z,25.68
2023-05-10T01:01:18.818Z,25.64
2023-05-10T01:02:18.756Z,25.65
2023-05-10T01:03:18.781Z,25.64
2023-05-10T01:04:18.770Z,25.65
2023-05-10T01:05:18.911Z,25.65
2023-05-10T01:06:18.702Z,25.65
2023-05-10T01:07:18.699Z,25.64
2023-05-10T01:08:18.721Z,25.64
2023-05-10T01:09:18.686Z,25.64
2023-05-10T01:10:18.857Z,25.61
2023-05-10T01:11:18.685Z,25.61
2023-05-10T01:12:18.665Z,25.65
2023-05-10T01:13:18.723Z,25.64
2023-05-10T01:14:18.729Z,25.65
2023-05-10T01:15:18.730Z,25.64
2023-05-10T01:16:18.799Z,25.62
2023-05-10T01:17:18.816Z,25.61
2023-05-10T01:18:18.795Z,25.62
2023-05-10T01:19:18.809Z,25.62
2023-05-10T01:20:19.204Z,25.61
2023-05-10T01:21:18.863Z,25.64
2023-05-10T01:22:18.881Z,25.64
2023-05-10T01:23:18.909Z,25.64
2023-05-10T01:24:18.933Z,25.61
2023-05-10T01:25:18.950Z,25.64
2023-05-10T01:26:18.975Z,25.61
2023-05-10T01:27:18.996Z,25.65
2023-05-10T01:28:19.018Z,25.62
2023-05-10T01:29:19.045Z,25.62
2023-05-10T01:30:19.059Z,25.62
2023-05-10T01:31:19.146Z,25.62
2023-05-10T01:32:19.115Z,25.61
2023-05-10T01:33:19.181Z,25.65
2023-05-10T01:34:19.167Z,25.61
2023-05-10T01:35:19.191Z,25.61
2023-05-10T01:36:19.222Z,25.62
2023-05-10T01:37:19.244Z,25.62
2023-05-10T01:38:19.268Z,25.62
2023-05-10T01:39:19.278Z,25.64
2023-05-10T01:40:19.307Z,25.58
2023-05-10T01:41:19.321Z,25.60
2023-05-10T01:42:19.343Z,25.64
2023-05-10T01:43:19.363Z,25.64
2023-05-10T01:44:19.405Z,25.62
2023-05-10T01:45:19.423Z,25.61
2023-05-10T01:46:19.503Z,25.60
2023-05-10T01:47:19.522Z,25.62
2023-05-10T01:48:19.523Z,25.61
2023-05-10T01:49:19.652Z,25.61
2023-05-10T01:50:19.788Z,25.61
2023-05-10T01:51:19.610Z,25.62
2023-05-10T01:52:19.601Z,25.62
2023-05-10T01:53:19.642Z,25.61
2023-05-10T01:54:19.687Z,25.61
2023-05-10T01:55:19.699Z,25.61
2023-05-10T01:56:19.705Z,25.60
2023-05-10T01:57:19.725Z,25.62
2023-05-10T01:58:19.753Z,25.61
2023-05-10T01:59:19.779Z,25.61
2023-05-10T02:00:19.808Z,25.61
2023-05-10T02:01:19.960Z,25.61
2023-05-10T02:02:19.852Z,25.61
2023-05-10T02:03:19.908Z,25.61
2023-05-10T02:04:19.919Z,25.60
2023-05-10T02:05:19.957Z,25.58
2023-05-10T02:06:19.936Z,25.58
2023-05-10T02:07:19.979Z,25.61
2023-05-10T02:08:19.990Z,25.58
2023-05-10T02:09:20.007Z,25.60
2023-05-10T02:10:20.024Z,25.58
2023-05-10T02:11:20.066Z,25.58
2023-05-10T02:12:20.091Z,25.60
2023-05-10T02:13:20.132Z,25.58
2023-05-10T02:14:20.119Z,25.58
2023-05-10T02:15:20.126Z,25.60
2023-05-10T02:16:20.182Z,25.60
2023-05-10T02:17:20.178Z,25.58
2023-05-10T02:18:20.185Z,25.55
2023-05-10T02:19:20.217Z,25.58
2023-05-10T02:20:20.410Z,25.58
2023-05-10T02:21:20.309Z,25.58
2023-05-10T02:22:20.268Z,25.58
2023-05-10T02:23:20.295Z,25.57
2023-05-10T02:24:20.322Z,25.58
2023-05-10T02:25:20.340Z,25.58
2023-05-10T02:26:20.367Z,25.60
2023-05-10T02:27:20.387Z,25.55
2023-05-10T02:28:20.448Z,25.57
2023-05-10T02:29:20.496Z,25.57
2023-05-10T02:30:20.467Z,25.58
2023-05-10T02:31:20.522Z,25.57
2023-05-10T02:32:20.508Z,25.57
2023-05-10T02:33:20.523Z,25.57
2023-05-10T02:34:20.552Z,25.57
2023-05-10T02:35:20.569Z,25.60
2023-05-10T02:36:20.598Z,25.55
2023-05-10T02:37:20.650Z,25.57
2023-05-10T02:38:20.675Z,25.55
2023-05-10T02:39:20.723Z,25.57
2023-05-10T02:40:20.697Z,25.57
2023-05-10T02:41:20.753Z,25.55
2023-05-10T02:42:20.742Z,25.55
2023-05-10T02:43:20.796Z,25.57
2023-05-10T02:44:20.798Z,25.57
2023-05-10T02:45:20.833Z,25.58
2023-05-10T02:46:20.901Z,25.57
2023-05-10T02:47:20.877Z,25.57
2023-05-10T02:48:20.898Z,25.58
2023-05-10T02:49:20.921Z,25.55
2023-05-10T02:50:20.938Z,25.57
2023-05-10T02:51:20.979Z,25.57
2023-05-10T02:52:20.986Z,25.58
2023-05-10T02:53:21.059Z,25.58
2023-05-10T02:54:21.026Z,25.57
2023-05-10T02:55:21.058Z,25.55
2023-05-10T02:56:21.056Z,25.55
2023-05-10T02:57:21.089Z,25.55
2023-05-10T02:58:21.124Z,25.55
2023-05-10T02:59:21.106Z,25.52
2023-05-10T03:00:21.122Z,25.57
2023-05-10T03:01:21.191Z,25.54
2023-05-10T03:02:21.227Z,25.55
2023-05-10T03:03:21.189Z,25.57
2023-05-10T03:04:21.247Z,25.57
2023-05-10T03:05:21.232Z,25.55
2023-05-10T03:06:21.254Z,25.52
2023-05-10T03:07:21.276Z,25.54
2023-05-10T03:08:21.333Z,25.52
2023-05-10T03:09:21.348Z,25.54
2023-05-10T03:10:21.361Z,25.57
2023-05-10T03:11:21.374Z,25.55
2023-05-10T03:12:21.400Z,25.55
2023-05-10T03:13:21.485Z,25.57
2023-05-10T03:14:21.454Z,25.55
2023-05-10T03:15:21.475Z,25.54
2023-05-10T03:16:21.614Z,25.55
2023-05-10T03:17:21.551Z,25.52
2023-05-10T03:18:21.551Z,25.54
2023-05-10T03:19:21.579Z,25.54
2023-05-10T03:20:21.598Z,25.55
2023-05-10T03:21:21.632Z,25.54
2023-05-10T03:22:21.652Z,25.54
2023-05-10T03:23:21.684Z,25.52
2023-05-10T03:24:21.702Z,25.52
2023-05-10T03:25:21.749Z,25.52
2023-05-10T03:26:21.756Z,25.54
2023-05-10T03:27:21.777Z,25.54
2023-05-10T03:28:21.811Z,25.51
2023-05-10T03:29:21.833Z,25.52
2023-05-10T03:30:21.860Z,25.54
2023-05-10T03:31:21.946Z,25.52
2023-05-10T03:32:21.944Z,25.51
2023-05-10T03:33:21.913Z,25.51
2023-05-10T03:34:21.936Z,25.51
2023-05-10T03:35:21.969Z,25.54
2023-05-10T03:36:21.987Z,25.51
2023-05-10T03:37:22.012Z,25.54
2023-05-10T03:38:22.067Z,25.52
2023-05-10T03:39:22.065Z,25.51
2023-05-10T03:40:22.105Z,25.52
2023-05-10T03:41:22.151Z,25.52
2023-05-10T03:42:22.156Z,25.51
2023-05-10T03:43:22.176Z,25.52
2023-05-10T03:44:22.207Z,25.54
2023-05-10T03:45:22.243Z,25.52
2023-05-10T03:46:22.290Z,25.54
2023-05-10T03:47:22.308Z,25.54
2023-05-10T03:48:22.342Z,25.51
2023-05-10T03:49:22.368Z,25.48
2023-05-10T03:50:22.425Z,25.51
2023-05-10T03:51:22.435Z,25.51
2023-05-10T03:52:22.466Z,25.52
2023-05-10T03:53:22.485Z,25.48
2023-05-10T03:54:22.521Z,25.52
2023-05-10T03:55:22.538Z,25.52
2023-05-10T03:56:22.575Z,25.54
2023-05-10T03:57:22.643Z,25.48
2023-05-10T03:58:22.648Z,25.51
2023-05-10T03:59:22.676Z,25.51
2023-05-10T04:00:22.706Z,25.54
2023-05-10T04:01:22.738Z,25.49
2023-05-10T04:02:22.843Z,25.49
2023-05-10T04:03:22.825Z,25.51
2023-05-10T04:04:22.825Z,25.49
2023-05-10T04:05:22.846Z,25.52
2023-05-10T04:06:22.926Z,25.49
2023-05-10T04:07:22.912Z,25.52
2023-05-10T04:08:22.993Z,25.49
2023-05-10T04:09:22.956Z,25.49
2023-05-10T04:10:22.980Z,25.49
2023-05-10T04:11:23.051Z,25.49
2023-05-10T04:12:23.053Z,25.52
2023-05-10T04:13:23.228Z,25.51
2023-05-10T04:14:23.125Z,25.47
2023-05-10T04:15:23.154Z,25.51
2023-05-10T04:16:23.211Z,25.47
2023-05-10T04:17:23.253Z,25.51
2023-05-10T04:18:23.256Z,25.51
2023-05-10T04:19:23.292Z,25.49
2023-05-10T04:20:23.318Z,25.49
2023-05-10T04:21:23.351Z,25.48
2023-05-10T04:22:23.390Z,25.49
2023-05-10T04:23:23.450Z,25.49
2023-05-10T04:24:23.459Z,25.49
2023-05-10T04:25:23.474Z,25.49
2023-05-10T04:26:23.512Z,25.49
2023-05-10T04:27:23.542Z,25.48
2023-05-10T04:28:23.573Z,25.48
2023-05-10T04:29:23.633Z,25.49
2023-05-10T04:30:23.633Z,25.51
2023-05-10T04:31:23.748Z,25.49
2023-05-10T04:32:23.722Z,25.49
2023-05-10T04:33:23.730Z,25.48
2023-05-10T04:34:23.772Z,25.48
2023-05-10T04:35:23.798Z,25.48
2023-05-10T04:36:23.838Z,25.48
2023-05-10T04:37:23.907Z,25.49
2023-05-10T04:38:23.900Z,25.48
2023-05-10T04:39:23.938Z,25.49
2023-05-10T04:40:23.972Z,25.51
2023-05-10T04:41:24.008Z,25.49
2023-05-10T04:42:24.032Z,25.48
2023-05-10T04:43:24.065Z,25.48
2023-05-10T04:44:24.103Z,25.49
2023-05-10T04:45:24.184Z,25.48
2023-05-10T04:46:24.234Z,25.48
2023-05-10T04:47:24.232Z,25.49
2023-05-10T04:48:24.259Z,25.49
2023-05-10T04:49:24.674Z,25.48
2023-05-10T04:50:24.335Z,25.49
2023-05-10T04:51:24.361Z,25.48
2023-05-10T04:52:24.394Z,25.47
2023-05-10T04:53:24.419Z,25.48
2023-05-10T04:54:24.493Z,25.48
2023-05-10T04:55:24.500Z,25.49
2023-05-10T04:56:24.537Z,25.48
2023-05-10T04:57:24.588Z,25.49
2023-05-10T04:58:24.611Z,25.48
2023-05-10T04:59:24.676Z,25.49
2023-05-10T05:00:24.691Z,25.48
2023-05-10T05:01:24.791Z,25.48
2023-05-10T05:02:24.812Z,25.51
2023-05-10T05:03:24.824Z,25.48
2023-05-10T05:04:24.838Z,25.49
2023-05-10T05:05:24.869Z,25.51
2023-05-10T05:06:24.902Z,25.51
2023-05-10T05:07:24.943Z,25.48
2023-05-10T05:08:25.023Z,25.48
2023-05-10T05:09:25.027Z,25.47
2023-05-10T05:10:25.061Z,25.51
2023-05-10T05:11:25.091Z,25.48
2023-05-10T05:12:25.124Z,25.49
2023-05-10T05:13:25.274Z,25.49
2023-05-10T05:14:25.196Z,25.49
2023-05-10T05:15:25.233Z,25.49
2023-05-10T05:16:25.277Z,25.49
2023-05-10T05:17:25.316Z,25.54
2023-05-10T05:18:25.326Z,25.51
2023-05-10T05:19:25.677Z,25.48
2023-05-10T05:20:25.426Z,25.48
2023-05-10T05:21:25.431Z,25.48
2023-05-10T05:22:25.484Z,25.48
2023-05-10T05:23:25.506Z,25.52
2023-05-10T05:24:25.542Z,25.48
2023-05-10T05:25:25.569Z,25.51
2023-05-10T05:26:25.616Z,25.52
2023-05-10T05:27:25.649Z,25.51
2023-05-10T05:28:25.681Z,25.54
2023-05-10T05:29:25.717Z,25.54
2023-05-10T05:30:25.747Z,25.54
2023-05-10T05:31:25.796Z,25.55
2023-05-10T05:32:25.828Z,25.57
2023-05-10T05:33:25.862Z,25.57
2023-05-10T05:34:25.862Z,25.57
2023-05-10T05:35:25.904Z,25.58
2023-05-10T05:36:25.998Z,25.60
2023-05-10T05:37:25.984Z,25.60
2023-05-10T05:38:26.007Z,25.58
2023-05-10T05:39:26.017Z,25.61
2023-05-10T05:40:26.047Z,25.61
2023-05-10T05:41:26.071Z,25.61
2023-05-10T05:42:26.219Z,25.61
2023-05-10T05:43:26.142Z,25.61
2023-05-10T05:44:26.184Z,25.60
2023-05-10T05:45:26.676Z,25.60
2023-05-10T05:46:26.239Z,25.64
2023-05-10T05:47:26.293Z,25.60
2023-05-10T05:48:26.286Z,25.62
2023-05-10T05:49:26.774Z,25.62
2023-05-10T05:50:26.672Z,25.64
2023-05-10T05:51:26.373Z,25.64
2023-05-10T05:52:26.372Z,25.66
2023-05-10T05:53:26.402Z,25.65
2023-05-10T05:54:26.678Z,25.68
2023-05-10T05:55:26.448Z,25.66
2023-05-10T05:56:26.479Z,25.68
2023-05-10T05:57:29.740Z,25.71
2023-05-10T05:58:26.705Z,25.71
2023-05-10T05:59:26.691Z,25.73
2023-05-10T06:00:26.475Z,25.73
2023-05-10T06:01:26.488Z,25.73
2023-05-10T06:02:26.572Z,25.78
2023-05-10T06:03:26.676Z,25.82
2023-05-10T06:04:26.830Z,25.85
2023-05-10T06:05:27.002Z,25.86
2023-05-10T06:06:26.440Z,25.88
2023-05-10T06:07:26.431Z,25.92
2023-05-10T06:08:26.567Z,25.93
2023-05-10T06:09:26.474Z,25.96
2023-05-10T06:10:26.382Z,26.00
2023-05-10T06:11:26.385Z,26.01
2023-05-10T06:12:26.673Z,26.06
2023-05-10T06:13:26.473Z,26.06
2023-05-10T06:14:26.685Z,26.06
2023-05-10T06:15:26.690Z,26.08
2023-05-10T06:16:26.343Z,26.12
2023-05-10T06:17:26.366Z,26.12
2023-05-10T06:18:26.318Z,26.16
2023-05-10T06:19:26.312Z,26.16
2023-05-10T06:20:26.707Z,26.19
2023-05-10T06:21:26.327Z,26.21
2023-05-10T06:22:26.282Z,26.23
2023-05-10T06:23:26.264Z,26.21
2023-05-10T06:24:26.295Z,26.24
2023-05-10T06:25:26.258Z,26.26
2023-05-10T06:26:26.314Z,26.28
2023-05-10T06:27:26.358Z,26.30
2023-05-10T06:28:26.404Z,26.31
2023-05-10T06:29:26.684Z,26.34
2023-05-10T06:30:26.512Z,26.35
2023-05-10T06:31:26.611Z,26.35
2023-05-10T06:32:29.824Z,26.38
2023-05-10T06:33:26.617Z,26.38
2023-05-10T06:34:26.744Z,26.39
2023-05-10T06:35:26.535Z,26.38
2023-05-10T06:36:26.499Z,26.42
2023-05-10T06:37:26.511Z,26.44
2023-05-10T06:38:26.821Z,26.42
2023-05-10T06:39:26.425Z,26.45
2023-05-10T06:40:26.434Z,26.45
2023-05-10T06:41:26.394Z,26.48
2023-05-10T06:42:26.385Z,26.49
2023-05-10T06:43:26.688Z,26.48
2023-05-10T06:44:26.703Z,26.47
2023-05-10T06:45:26.693Z,26.48
2023-05-10T06:46:26.335Z,26.51
2023-05-10T06:47:26.327Z,26.52
2023-05-10T06:48:26.243Z,26.49
2023-05-10T06:49:26.696Z,26.49
2023-05-10T06:50:26.694Z,26.47
2023-05-10T06:51:26.208Z,26.49
2023-05-10T06:52:26.194Z,26.47
2023-05-10T06:53:26.192Z,26.45
2023-05-10T06:54:26.724Z,26.42
2023-05-10T06:55:26.258Z,26.41
2023-05-10T06:56:33.712Z,26.39
2023-05-10T06:57:31.636Z,26.38
2023-05-10T06:58:42.395Z,26.38
2023-05-10T06:59:26.343Z,26.35
2023-05-10T07:00:26.716Z,26.32
2023-05-10T07:01:26.306Z,26.32
2023-05-10T07:02:29.579Z,26.32
2023-05-10T07:03:26.209Z,26.30
2023-05-10T07:04:26.716Z,26.28
2023-05-10T07:05:26.263Z,26.27
2023-05-10T07:06:33.333Z,26.23
2023-05-10T07:07:26.168Z,26.26
2023-05-10T07:08:26.162Z,26.23
2023-05-10T07:09:26.166Z,26.23
2023-05-10T07:10:26.208Z,26.17
2023-05-10T07:11:26.124Z,26.19
2023-05-10T07:12:26.148Z,26.17
2023-05-10T07:13:26.082Z,26.16
2023-05-10T07:14:26.082Z,26.14
2023-05-10T07:15:26.069Z,26.16
2023-05-10T07:16:26.234Z,26.14
2023-05-10T07:17:26.213Z,26.13
2023-05-10T07:18:26.033Z,26.12
2023-05-10T07:19:25.999Z,26.10
2023-05-10T07:20:25.986Z,26.10
2023-05-10T07:21:26.244Z,26.08
2023-05-10T07:22:25.966Z,26.08
2023-05-10T07:23:25.961Z,26.08
2023-05-10T07:24:25.946Z,26.07
2023-05-10T07:25:25.962Z,26.06
2023-05-10T07:26:25.929Z,26.06
2023-05-10T07:27:26.210Z,26.04
2023-05-10T07:28:25.871Z,26.07
2023-05-10T07:29:26.212Z,26.03
2023-05-10T07:30:25.860Z,26.03
2023-05-10T07:31:25.814Z,26.04
2023-05-10T07:32:26.398Z,26.03
2023-05-10T07:33:26.803Z,26.03
2023-05-10T07:34:25.824Z,26.01
2023-05-10T07:35:26.243Z,26.03
2023-05-10T07:36:25.807Z,26.01
2023-05-10T07:37:25.774Z,26.03
2023-05-10T07:38:25.810Z,26.03
2023-05-10T07:39:28.240Z,25.97
2023-05-10T07:40:26.230Z,26.00
2023-05-10T07:41:25.771Z,26.01
2023-05-10T07:42:25.752Z,26.01
2023-05-10T07:43:25.726Z,26.01
2023-05-10T07:44:25.732Z,26.07
2023-05-10T07:45:25.671Z,26.08
2023-05-10T07:46:25.698Z,26.08
2023-05-10T07:47:25.700Z,26.10
2023-05-10T07:48:25.664Z,26.13
2023-05-10T07:49:25.795Z,26.14
2023-05-10T07:50:28.835Z,26.17
2023-05-10T07:51:25.599Z,26.20
2023-05-10T07:52:25.588Z,26.19
2023-05-10T07:53:25.671Z,26.21
2023-05-10T07:54:25.901Z,26.21
2023-05-10T07:55:25.559Z,26.23
2023-05-10T07:57:25.551Z,26.26
2023-05-10T07:58:25.472Z,26.23
2023-05-10T07:59:26.102Z,26.23
2023-05-10T08:00:25.734Z,26.21
2023-05-10T08:01:25.763Z,26.20
2023-05-10T08:02:25.486Z,26.20
2023-05-10T08:03:25.470Z,26.17
2023-05-10T08:04:25.426Z,26.16
2023-05-10T08:05:25.721Z,26.19
2023-05-10T08:06:25.387Z,26.17
2023-05-10T08:07:25.723Z,26.16
2023-05-10T08:08:25.397Z,26.14
2023-05-10T08:09:25.538Z,26.16
2023-05-10T08:10:25.344Z,26.16
2023-05-10T08:11:25.357Z,26.13
2023-05-10T08:12:25.314Z,26.14
2023-05-10T08:13:25.344Z,26.12
2023-05-10T08:14:25.307Z,26.12
2023-05-10T08:15:25.303Z,26.14
2023-05-10T08:16:25.372Z,26.10
2023-05-10T08:17:25.286Z,26.12
2023-05-10T08:18:25.294Z,26.08
2023-05-10T08:19:25.276Z,26.10
2023-05-10T08:20:25.739Z,26.10
2023-05-10T08:21:25.265Z,26.08
2023-05-10T08:22:25.254Z,26.08
2023-05-10T08:23:25.286Z,26.08
2023-05-10T08:24:25.306Z,26.07
2023-05-10T08:25:25.757Z,26.07
2023-05-10T08:26:25.322Z,26.06
2023-05-10T08:27:25.339Z,26.06
2023-05-10T08:28:25.336Z,26.06
2023-05-10T08:29:26.632Z,26.04
2023-05-10T08:30:25.359Z,26.04
2023-05-10T08:31:25.431Z,26.04
2023-05-10T08:32:25.401Z,26.06
2023-05-10T08:33:25.377Z,26.04
2023-05-10T08:34:26.122Z,26.06
2023-05-10T08:35:25.745Z,26.04
2023-05-10T08:36:25.533Z,26.04
2023-05-10T08:37:25.433Z,26.06
2023-05-10T08:38:57.264Z,26.04
2023-05-10T08:39:30.372Z,26.01
2023-05-10T08:40:26.195Z,26.06
2023-05-10T08:41:25.748Z,26.04
2023-05-10T08:42:41.035Z,26.04
2023-05-10T08:43:57.337Z,26.06
2023-05-10T08:44:25.415Z,26.04
2023-05-10T08:45:25.419Z,26.03
2023-05-10T08:46:25.427Z,26.01
2023-05-10T08:47:25.399Z,26.01
2023-05-10T08:48:25.354Z,26.04
2023-05-10T08:49:25.359Z,26.03
2023-05-10T08:50:25.745Z,26.04
2023-05-10T08:51:25.309Z,26.01
2023-05-10T08:52:25.312Z,25.99
2023-05-10T08:53:25.301Z,26.03
2023-05-10T08:54:25.278Z,26.03
2023-05-10T08:55:25.795Z,26.03
2023-05-10T08:56:25.852Z,26.03
2023-05-10T08:57:25.248Z,26.01
2023-05-10T08:58:25.281Z,26.00
2023-05-10T08:59:25.211Z,26.01
2023-05-10T09:00:25.200Z,26.01
2023-05-10T09:01:25.372Z,26.04
2023-05-10T09:02:25.638Z,26.03
2023-05-10T09:03:25.150Z,26.04
2023-05-10T09:04:25.322Z,26.04
2023-05-10T09:05:25.273Z,26.04
2023-05-10T09:06:25.120Z,26.01
2023-05-10T09:07:25.106Z,26.04
2023-05-10T09:08:25.108Z,26.06
2023-05-10T09:09:25.254Z,26.03
2023-05-10T09:10:25.106Z,26.03
2023-05-10T09:11:25.095Z,26.06
2023-05-10T09:12:25.079Z,26.03
2023-05-10T09:13:25.061Z,26.06
2023-05-10T09:14:25.056Z,26.04
2023-05-10T09:15:25.261Z,26.04
2023-05-10T09:16:26.080Z,26.04
2023-05-10T09:17:25.201Z,26.08
2023-05-10T09:18:27.242Z,26.07
2023-05-10T09:19:25.009Z,26.07
2023-05-10T09:20:25.301Z,26.07
2023-05-10T09:21:25.037Z,26.06
2023-05-10T09:22:25.010Z,26.06
2023-05-10T09:23:24.993Z,26.07
2023-05-10T09:24:24.957Z,26.04
2023-05-10T09:25:25.258Z,26.06
2023-05-10T09:26:24.933Z,26.07
2023-05-10T09:27:24.911Z,26.08
2023-05-10T09:28:25.008Z,26.07
2023-05-10T09:29:25.268Z,26.06
2023-05-10T09:30:24.862Z,26.04
2023-05-10T09:31:24.928Z,26.06
2023-05-10T09:32:24.872Z,26.06
2023-05-10T09:33:56.664Z,26.04
2023-05-10T09:34:25.259Z,26.06
2023-05-10T09:35:27.213Z,26.01
2023-05-10T09:36:24.906Z,26.01
2023-05-10T09:37:24.890Z,26.03
2023-05-10T09:38:25.269Z,26.00
2023-05-10T09:39:24.923Z,26.00
2023-05-10T09:40:24.985Z,25.97
2023-05-10T09:41:24.945Z,25.93
2023-05-10T09:42:24.976Z,25.89
2023-05-10T09:43:25.258Z,25.86
2023-05-10T09:44:25.069Z,25.79
2023-05-10T09:45:25.268Z,25.78
2023-05-10T09:46:25.222Z,25.80
2023-05-10T09:47:25.233Z,25.85
2023-05-10T09:48:25.215Z,25.86
2023-05-10T09:49:25.248Z,25.92
2023-05-10T09:50:25.223Z,25.99
2023-05-10T09:51:25.252Z,26.01
2023-05-10T09:52:25.280Z,26.03
2023-05-10T09:53:25.856Z,26.13
2023-05-10T09:54:25.428Z,26.19
2023-05-10T09:55:25.469Z,26.21
2023-05-10T09:56:25.512Z,26.28
2023-05-10T09:57:25.579Z,26.31
2023-05-10T09:58:25.618Z,26.35
2023-05-10T09:59:33.064Z,26.41
2023-05-10T10:00:25.873Z,26.44
2023-05-10T10:01:25.669Z,26.47
2023-05-10T10:02:25.626Z,26.49
2023-05-10T10:03:25.592Z,26.52
2023-05-10T10:04:25.602Z,26.52
2023-05-10T10:05:25.599Z,26.55
2023-05-10T10:06:30.142Z,26.56
2023-05-10T10:07:25.518Z,26.58
2023-05-10T10:08:25.493Z,26.59
2023-05-10T10:09:25.469Z,26.60
2023-05-10T10:10:25.777Z,26.63
2023-05-10T10:11:25.430Z,26.65
2023-05-10T10:12:25.422Z,26.63
2023-05-10T10:13:25.398Z,26.66
2023-05-10T10:14:25.395Z,26.71
2023-05-10T10:15:25.818Z,26.69
2023-05-10T10:16:25.402Z,26.69
2023-05-10T10:17:25.354Z,26.72
2023-05-10T10:18:25.329Z,26.75
2023-05-10T10:19:25.281Z,26.72
2023-05-10T10:20:25.240Z,26.73
2023-05-10T10:21:25.345Z,26.75
2023-05-10T10:22:25.191Z,26.73
2023-05-10T10:23:25.189Z,26.71
2023-05-10T10:24:25.153Z,26.72
2023-05-10T10:25:25.117Z,26.69
2023-05-10T10:26:25.304Z,26.76
2023-05-10T10:27:25.041Z,26.78
2023-05-10T10:28:26.131Z,26.78
2023-05-10T10:29:28.169Z,26.78
2023-05-10T10:30:28.166Z,26.82
2023-05-10T10:31:25.354Z,26.82
2023-05-10T10:32:24.940Z,26.82
2023-05-10T10:33:28.896Z,26.85
2023-05-10T10:34:24.846Z,26.86
2023-05-10T10:35:24.827Z,26.86
2023-05-10T10:36:25.286Z,26.87
2023-05-10T10:37:24.808Z,26.87
2023-05-10T10:38:24.765Z,26.86
2023-05-10T10:39:24.786Z,26.86
2023-05-10T10:40:24.750Z,26.87
2023-05-10T10:41:24.800Z,26.90
2023-05-10T10:42:24.767Z,26.93
2023-05-10T10:43:24.813Z,26.87
2023-05-10T10:44:24.785Z,26.91
2023-05-10T10:45:24.780Z,26.90
2023-05-10T10:46:24.818Z,26.93
2023-05-10T10:47:24.814Z,26.93
2023-05-10T10:48:24.807Z,26.96
2023-05-10T10:49:24.800Z,26.94
2023-05-10T10:50:24.815Z,27.00
2023-05-10T10:51:25.301Z,26.97
2023-05-10T10:52:24.844Z,26.98
2023-05-10T10:53:24.903Z,26.98
2023-05-10T10:54:24.821Z,26.98
2023-05-10T10:55:24.814Z,27.05
2023-05-10T10:56:24.805Z,27.03
2023-05-10T10:57:24.800Z,27.03
2023-05-10T10:58:24.800Z,27.04
2023-05-10T10:59:24.787Z,27.05
2023-05-10T11:00:24.780Z,27.04
2023-05-10T11:01:24.838Z,27.11
2023-05-10T11:02:24.785Z,27.15
2023-05-10T11:03:24.752Z,27.11
2023-05-10T11:04:24.772Z,27.13
2023-05-10T11:05:24.729Z,27.14
2023-05-10T11:06:24.716Z,27.15
2023-05-10T11:07:24.719Z,27.14
2023-05-10T11:08:24.696Z,27.18
2023-05-10T11:09:24.730Z,27.15
2023-05-10T11:10:24.697Z,27.18
2023-05-10T11:11:24.689Z,27.17
2023-05-10T11:12:24.684Z,27.18
2023-05-10T11:13:24.684Z,27.18
2023-05-10T11:14:24.708Z,27.17
2023-05-10T11:15:25.410Z,27.17
2023-05-10T11:16:24.903Z,27.14
2023-05-10T11:17:24.737Z,27.14
2023-05-10T11:18:24.794Z,27.11
2023-05-10T11:19:24.763Z,27.10
2023-05-10T11:20:24.776Z,27.08
2023-05-10T11:21:24.815Z,27.08
2023-05-10T11:22:24.808Z,27.07
2023-05-10T11:23:24.825Z,27.05
2023-05-10T11:24:24.843Z,27.04
2023-05-10T11:25:24.891Z,27.01
2023-05-10T11:26:24.896Z,27.00
2023-05-10T11:27:24.928Z,26.97
2023-05-10T11:28:24.939Z,26.96
2023-05-10T11:29:24.967Z,26.93
2023-05-10T11:30:25.025Z,26.93
2023-05-10T11:31:25.183Z,26.93
2023-05-10T11:32:25.158Z,26.93
2023-05-10T11:33:25.102Z,26.90
2023-05-10T11:34:25.157Z,26.89
2023-05-10T11:35:25.153Z,26.86
2023-05-10T11:36:25.174Z,26.89
2023-05-10T11:37:25.200Z,26.89
2023-05-10T11:38:25.224Z,26.83
2023-05-10T11:39:25.253Z,26.86
2023-05-10T11:40:25.287Z,26.82
2023-05-10T11:41:25.342Z,26.83
2023-05-10T11:42:25.350Z,26.82
2023-05-10T11:43:25.390Z,26.82
2023-05-10T11:44:25.474Z,26.82
2023-05-10T11:45:25.473Z,26.79
2023-05-10T11:46:25.665Z,26.78
2023-05-10T11:47:25.594Z,26.76
2023-05-10T11:48:25.577Z,26.78
2023-05-10T11:49:25.624Z,26.76
2023-05-10T11:50:25.655Z,26.75
2023-05-10T11:51:25.703Z,26.72
2023-05-10T11:52:25.743Z,26.71
2023-05-10T11:53:26.002Z,26.72
2023-05-10T11:54:25.819Z,26.71
2023-05-10T11:55:25.880Z,26.68
2023-05-10T11:56:25.902Z,26.69
2023-05-10T11:57:26.026Z,26.68
2023-05-10T11:58:25.992Z,26.65
2023-05-10T11:59:26.042Z,26.63
2023-05-10T12:00:26.081Z,26.63
2023-05-10T12:01:26.319Z,26.60
2023-05-10T12:02:26.243Z,26.62
2023-05-10T12:03:26.333Z,26.60
2023-05-10T12:04:26.248Z,26.60
2023-05-10T12:05:26.285Z,26.58
2023-05-10T12:06:26.335Z,26.59
2023-05-10T12:07:26.379Z,26.56
2023-05-10T12:08:26.427Z,26.56
2023-05-10T12:09:35.900Z,26.55
2023-05-10T12:10:26.448Z,26.52
2023-05-10T12:11:26.422Z,26.54
2023-05-10T12:12:26.388Z,26.54
2023-05-10T12:13:26.397Z,26.52
2023-05-10T12:14:26.366Z,26.48
2023-05-10T12:15:26.353Z,26.48
2023-05-10T12:16:26.877Z,26.48
2023-05-10T12:17:26.351Z,26.47
2023-05-10T12:18:26.416Z,26.48
2023-05-10T12:19:26.306Z,26.48
2023-05-10T12:20:26.293Z,26.47
2023-05-10T12:21:26.287Z,26.45
2023-05-10T12:22:26.328Z,26.45
2023-05-10T12:23:26.253Z,26.47
2023-05-10T12:24:26.241Z,26.47
2023-05-10T12:25:26.218Z,26.42
2023-05-10T12:26:27.196Z,26.44
2023-05-10T12:27:26.186Z,26.44
2023-05-10T12:28:26.163Z,26.44
2023-05-10T12:29:26.166Z,26.42
2023-05-10T12:30:26.118Z,26.41
2023-05-10T12:31:26.132Z,26.44
2023-05-10T12:32:26.166Z,26.42
2023-05-10T12:33:26.140Z,26.39
2023-05-10T12:34:26.196Z,26.41
2023-05-10T12:35:26.241Z,26.41
2023-05-10T12:36:26.294Z,26.41
2023-05-10T12:37:26.359Z,26.39
2023-05-10T12:38:26.376Z,26.39
2023-05-10T12:39:26.432Z,26.37
2023-05-10T12:40:26.488Z,26.39
2023-05-10T12:41:26.532Z,26.35
2023-05-10T12:42:26.580Z,26.34
2023-05-10T12:43:26.853Z,26.35
2023-05-10T12:44:26.686Z,26.38
2023-05-10T12:45:26.755Z,26.34
2023-05-10T12:46:26.862Z,26.34
2023-05-10T12:47:26.914Z,26.37
2023-05-10T12:48:26.886Z,26.34
2023-05-10T12:49:26.972Z,26.38
2023-05-10T12:50:26.980Z,26.34
2023-05-10T12:51:27.382Z,26.35
2023-05-10T12:52:27.082Z,26.32
2023-05-10T12:53:27.128Z,26.34